createdAt,value
2023-06-04T10:43:42.450Z,33.53
2023-06-04T10:48:08.764Z,33.12
2023-06-04T10:50:53.463Z,31.02
2023-06-04T10:53:24.522Z,32.45
2023-06-04T10:55:52.794Z,31.64
2023-06-04T10:58:21.700Z,33.15
2023-06-04T11:00:51.197Z,33.66
2023-06-04T11:03:21.130Z,34.12
2023-06-04T11:05:49.574Z,33.13
2023-06-04T11:08:29.634Z,32.98
2023-06-04T11:10:58.437Z,32.81
2023-06-04T11:13:27.204Z,33.12
2023-06-04T11:15:56.982Z,32.54
2023-06-04T11:18:29.510Z,29.93
2023-06-04T11:21:05.128Z,30.70
2023-06-04T11:23:34.835Z,30.22
2023-06-04T11:26:05.542Z,31.98
2023-06-04T11:28:35.576Z,31.80
2023-06-04T11:31:04.910Z,31.70
2023-06-04T11:33:46.388Z,31.48
2023-06-04T11:36:31.803Z,30.89
2023-06-04T11:39:02.744Z,31.35
2023-06-04T11:41:32.704Z,32.15
2023-06-04T11:44:07.020Z,33.07
2023-06-04T11:46:37.187Z,33.48
2023-06-04T11:49:05.702Z,32.25
2023-06-04T11:51:46.070Z,31.72
2023-06-04T11:54:16.694Z,31.30
2023-06-04T11:56:45.807Z,31.40
2023-06-04T11:59:15.657Z,31.25
2023-06-04T12:01:45.138Z,31.45
2023-06-04T18:09:14.079Z,34.22
2023-06-04T18:11:49.018Z,34.33
2023-06-04T18:14:17.583Z,34.64
2023-06-04T18:16:45.970Z,35.05
2023-06-04T18:19:14.313Z,35.65
2023-06-04T18:21:46.148Z,35.40
2023-06-04T18:24:15.525Z,35.38
2023-06-04T18:26:44.434Z,36.00
2023-06-04T18:29:12.731Z,36.10
2023-06-04T18:31:42.957Z,36.01
2023-06-04T18:34:21.338Z,35.87
2023-06-04T18:36:57.387Z,36.81
2023-06-04T18:39:27.498Z,36.94
2023-06-04T18:41:57.852Z,37.49
2023-06-04T18:44:27.102Z,37.98
2023-06-04T18:46:56.800Z,38.06
2023-06-04T18:49:25.768Z,38.57
2023-06-04T18:51:55.145Z,38.62
2023-06-04T18:54:23.304Z,39.10
2023-06-04T18:56:52.916Z,39.01
2023-06-04T18:59:23.062Z,39.37
2023-06-04T19:01:52.177Z,39.42
2023-06-04T19:04:20.241Z,40.03
2023-06-04T19:06:48.262Z,40.33
2023-06-04T19:09:17.962Z,40.66
2023-06-04T19:11:47.421Z,41.04
2023-06-04T19:14:18.502Z,41.30
2023-06-04T19:16:55.469Z,41.69
2023-06-04T19:19:24.393Z,42.50
2023-06-04T19:21:53.671Z,43.10
2023-06-04T19:24:26.811Z,42.72
2023-06-04T19:27:09.622Z,43.03
2023-06-04T19:29:43.573Z,42.75
2023-06-04T19:32:12.952Z,43.46
2023-06-04T19:34:43.956Z,44.14
2023-06-04T19:37:17.041Z,44.19
2023-06-04T19:39:45.285Z,44.83
2023-06-04T19:42:15.972Z,45.14
2023-06-04T19:44:48.564Z,45.72
2023-06-04T19:47:19.458Z,46.20
2023-06-04T19:49:48.174Z,46.15
2023-06-04T19:52:19.873Z,46.66
2023-06-04T19:54:49.444Z,47.61
2023-06-04T19:57:21.021Z,47.66
2023-06-04T19:59:51.788Z,47.73
2023-06-04T20:02:29.062Z,47.44
2023-06-04T20:05:00.264Z,47.99
2023-06-04T20:07:29.792Z,47.54
2023-06-04T20:09:58.155Z,48.36
2023-06-04T20:12:27.523Z,48.10
2023-06-04T20:14:58.395Z,48.33
2023-06-04T20:17:26.686Z,48.03
2023-06-04T20:20:16.530Z,48.28
2023-06-04T20:22:44.867Z,47.87
2023-06-04T20:25:13.355Z,48.25
2023-06-04T20:27:47.885Z,48.21
2023-06-04T20:30:15.949Z,48.30
2023-06-04T20:32:44.036Z,48.62
2023-06-04T20:35:12.282Z,48.80
2023-06-04T20:37:43.127Z,48.68
2023-06-04T20:40:14.441Z,48.58
2023-06-04T20:42:43.441Z,48.99
2023-06-04T20:45:18.154Z,48.73
2023-06-04T20:47:47.609Z,48.97
2023-06-04T20:50:15.926Z,49.16
2023-06-04T20:52:45.953Z,49.50
2023-06-04T20:55:14.990Z,49.88
2023-06-04T20:57:43.804Z,49.99
2023-06-04T21:00:13.060Z,50.07
2023-06-04T21:02:41.612Z,50.45
2023-06-04T21:05:10.098Z,50.50
2023-06-04T21:07:38.007Z,50.70
2023-06-04T21:10:06.226Z,50.84
2023-06-04T21:12:34.375Z,50.97
2023-06-04T21:15:02.544Z,51.24
2023-06-04T21:17:32.549Z,51.25
2023-06-04T21:20:00.803Z,51.54
2023-06-04T21:22:28.934Z,51.59
2023-06-04T21:24:59.913Z,51.50
2023-06-04T21:27:34.634Z,51.78
2023-06-04T21:30:02.973Z,51.96
2023-06-04T21:32:44.118Z,52.31
2023-06-04T21:35:22.448Z,52.44
2023-06-04T21:37:53.067Z,52.70
2023-06-04T21:40:21.140Z,52.75
2023-06-04T21:42:49.136Z,52.64
2023-06-04T21:45:18.081Z,52.46
2023-06-04T21:47:46.706Z,52.02
2023-06-04T21:50:15.310Z,52.66
2023-06-04T21:52:44.385Z,52.79
2023-06-04T21:55:12.376Z,53.08
2023-06-04T21:57:40.533Z,53.30
2023-06-04T22:00:09.823Z,53.22
2023-06-04T22:02:43.720Z,53.84
2023-06-04T22:05:11.836Z,53.38
2023-06-04T22:07:40.505Z,53.57
2023-06-04T22:10:09.088Z,54.09
2023-06-04T22:12:41.024Z,54.01
2023-06-04T22:15:09.349Z,54.31
2023-06-04T22:17:37.411Z,54.25
2023-06-04T22:20:06.536Z,54.63
2023-06-04T22:22:34.320Z,55.30
2023-06-04T22:25:02.368Z,55.19
2023-06-04T22:27:36.771Z,55.88
2023-06-04T22:30:05.405Z,55.30
2023-06-04T22:32:33.294Z,55.20
2023-06-04T22:35:01.382Z,54.37
2023-06-04T22:37:32.051Z,54.69
2023-06-04T22:40:01.843Z,55.20
2023-06-04T22:42:31.369Z,54.91
2023-06-04T22:44:59.556Z,54.95
2023-06-04T22:47:27.457Z,54.82
2023-06-04T22:49:55.424Z,55.76
2023-06-04T22:52:28.413Z,55.33
2023-06-04T22:54:57.212Z,55.31
2023-06-04T22:57:25.663Z,55.94
2023-06-04T22:59:54.037Z,56.18
2023-06-04T23:02:22.207Z,56.47
2023-06-04T23:04:50.241Z,55.86
2023-06-04T23:07:18.560Z,56.30
2023-06-04T23:09:47.849Z,57.12
2023-06-04T23:12:15.849Z,58.03
2023-06-04T23:14:43.864Z,58.04
2023-06-04T23:17:11.735Z,57.74
2023-06-04T23:19:39.639Z,57.35
2023-06-04T23:22:07.574Z,58.53
2023-06-04T23:24:42.710Z,58.53
2023-06-04T23:27:10.607Z,58.62
2023-06-04T23:29:38.562Z,57.92
2023-06-04T23:32:06.831Z,58.20
2023-06-04T23:34:34.752Z,57.90
2023-06-04T23:37:03.084Z,59.06
2023-06-04T23:39:31.157Z,59.02
2023-06-04T23:41:59.034Z,58.67
2023-06-04T23:44:26.926Z,58.44
2023-06-04T23:46:54.857Z,58.31
2023-06-04T23:49:22.717Z,58.17
2023-06-04T23:51:50.666Z,58.94
2023-06-04T23:54:18.884Z,59.21
2023-06-04T23:56:46.987Z,59.00
2023-06-04T23:59:14.814Z,59.42
